Airfield :
LOGIN :

Register | Disclaimer

   EN    FR    IT 

 










Legend :    VFR   Marginal VFR   IFR   Intensive IFR   Very Intensive IFR
Visi :
Ceiling :
>= 8 km
>= 3000ft
5 to 8 km
1000 to 3000 ft
1500m to 5 km
500 to 1000 ft
800 to 1500m
200 to 500 ft
< 800m
< 200 ft
Symbols :   Thunderstorms  Fog  Heavy snow  Heavy precipitations  Wind > 20 kt
SIGMETs :     Misc.  Thunderstorms  Icing  Turbulence  Mountain Waves  Volcanic Ashes






- Airport Elevation : 659 ft
- IATA code : LGG


EBLG - Liège

CURRENT METAR :
  • 200050Z 20011KT 9999 SCT012 06/04 Q1019 NOSIG

EXPIRED METARs :
  • 200020Z 19012KT 9999 BKN012 06/04 Q1019 NOSIG
  • 192350Z 20012KT 9999 BKN012 BKN020 06/04 Q1020 NOSIG
  • 192320Z 20013KT 9999 SCT013 BKN023 06/04 Q1020 TEMPO BKN013
  • 192250Z 20010KT 9999 -RA FEW023 BKN045 06/03 Q1020 NOSIG
  • 192220Z 21013KT 9999 -RA FEW023 BKN046 06/04 Q1020 NOSIG

TAF TAF EBLG
Valid from the 20 at 00:00 until the 21 at 06:00 UTC


192300Z 2000/2106 21012KT 9999 SCT018 BKN035
PROB30
TEMPO 2000/2001 4000 RADZ BKN008
PROB30
TEMPO 2001/2010 4000 -DZ BKN010
BECMG 2010/2012 22015G25KT
PROB30
TEMPO 2010/2016 4500 -RA BR BKN014
TEMPO 2016/2020 23020G35KT 4000 RA SHRA BKN013 SCT020TCU
BECMG 2020/2023 26012KT



MET'MAP, your aeronautical weather chart ! - Copyright ORBIFLY December 2007 - Disclaimer

ORBIFLY MET'MAP TEAM :

Programming & Development : Alexandra Zaïnal
Concept & original design : Baudouin d'Aumeries
Assistance for programming : Marc-Olivier Méhu
Technical & hardware support : Manuel Goepfert

Contact : metmap@orbifly.com




SOURCES & CREDITS :

   NOAA